createdAt,value
2019-03-13T00:02:27.301Z,8.30
2019-03-13T00:04:57.709Z,5.77
2019-03-13T00:07:28.265Z,3.83
2019-03-13T00:09:58.456Z,5.07
2019-03-13T00:12:28.736Z,9.17
2019-03-13T00:14:58.852Z,9.70
2019-03-13T00:17:29.155Z,8.20
2019-03-13T00:19:59.395Z,5.57
2019-03-13T00:22:29.766Z,4.63
2019-03-13T00:24:59.936Z,7.77
2019-03-13T00:27:30.160Z,5.50
2019-03-13T00:30:00.373Z,6.97
2019-03-13T00:32:30.495Z,6.73
2019-03-13T00:35:00.941Z,6.57
2019-03-13T00:37:31.092Z,6.70
2019-03-13T00:40:07.631Z,8.40
2019-03-13T00:42:37.832Z,8.37
2019-03-13T00:45:08.427Z,12.87
2019-03-13T00:47:39.815Z,7.47
2019-03-13T00:50:10.462Z,6.83
2019-03-13T00:52:40.873Z,5.07
2019-03-13T00:55:11.223Z,9.23
2019-03-13T00:57:41.440Z,14.47
2019-03-13T01:00:13.250Z,9.73
2019-03-13T01:02:45.077Z,12.40
2019-03-13T01:05:29.395Z,10.57
2019-03-13T01:07:59.607Z,5.80
2019-03-13T01:10:29.875Z,6.50
2019-03-13T01:13:00.044Z,8.87
2019-03-13T01:15:30.119Z,12.20
2019-03-13T01:18:00.331Z,10.30
2019-03-13T01:20:30.497Z,11.30
2019-03-13T01:23:00.663Z,8.10
2019-03-13T01:25:30.891Z,16.73
2019-03-13T01:28:01.064Z,4.47
2019-03-13T01:30:38.413Z,10.07
2019-03-13T01:33:12.128Z,8.67
2019-03-13T01:35:46.371Z,8.47
2019-03-13T01:38:16.643Z,6.80
2019-03-13T01:40:46.961Z,6.47
2019-03-13T01:43:17.182Z,12.33
2019-03-13T01:45:47.419Z,10.23
2019-03-13T01:48:17.740Z,8.70
2019-03-13T01:50:48.872Z,4.43
2019-03-13T01:53:19.102Z,6.40
2019-03-13T01:55:49.326Z,8.70
2019-03-13T01:58:19.606Z,4.17
2019-03-13T02:00:49.803Z,5.47
2019-03-13T02:03:19.976Z,6.10
2019-03-13T02:05:50.269Z,4.97
2019-03-13T02:08:20.472Z,6.07
2019-03-13T02:10:50.648Z,5.60
2019-03-13T02:13:22.092Z,4.93
2019-03-13T02:15:52.407Z,9.07
2019-03-13T02:18:22.642Z,3.83
2019-03-13T02:20:52.925Z,6.53
2019-03-13T02:23:23.133Z,4.83
2019-03-13T02:25:53.853Z,7.73
2019-03-13T02:28:24.082Z,4.77
2019-03-13T02:30:54.255Z,4.43
2019-03-13T02:33:24.468Z,5.77
2019-03-13T02:35:54.940Z,6.07
2019-03-13T02:38:25.520Z,6.77
2019-03-13T02:40:56.030Z,3.83
2019-03-13T02:43:26.680Z,5.60
2019-03-13T02:45:58.328Z,5.30
2019-03-13T02:48:28.721Z,6.83
2019-03-13T02:51:00.197Z,4.40
2019-03-13T02:53:30.875Z,3.40
2019-03-13T02:56:01.072Z,4.20
2019-03-13T02:58:31.345Z,5.50
2019-03-13T03:01:23.399Z,6.93
2019-03-13T03:03:55.580Z,4.40
2019-03-13T03:06:25.761Z,6.23
2019-03-13T03:08:55.941Z,2.70
2019-03-13T03:11:26.154Z,4.03
2019-03-13T03:13:56.331Z,3.90
2019-03-13T03:16:26.605Z,4.47
2019-03-13T03:18:56.985Z,4.13
2019-03-13T03:21:27.316Z,3.50
2019-03-13T03:23:57.418Z,4.93
2019-03-13T03:26:27.635Z,8.53
2019-03-13T03:28:57.757Z,6.47
2019-03-13T03:31:27.892Z,8.00
2019-03-13T03:34:02.722Z,3.93
2019-03-13T03:36:33.383Z,6.80
2019-03-13T03:39:05.072Z,4.27
2019-03-13T03:41:35.274Z,4.27
2019-03-13T03:44:05.490Z,3.37
2019-03-13T03:46:35.697Z,5.43
2019-03-13T03:49:05.938Z,6.83
2019-03-13T03:51:36.152Z,7.00
2019-03-13T03:54:07.236Z,5.47
2019-03-13T03:56:37.463Z,5.40
2019-03-13T03:59:07.729Z,5.53
2019-03-13T04:01:37.908Z,5.73
2019-03-13T04:04:08.030Z,5.50
2019-03-13T04:06:38.391Z,5.53
2019-03-13T04:09:08.685Z,5.17
2019-03-13T04:11:38.931Z,3.87
2019-03-13T04:14:09.163Z,4.77
2019-03-13T04:16:39.384Z,4.07
2019-03-13T04:19:09.615Z,8.13
2019-03-13T04:21:39.820Z,6.10
2019-03-13T04:24:10.145Z,9.50
2019-03-13T04:26:40.390Z,4.47
2019-03-13T04:29:10.550Z,5.73
2019-03-13T04:31:40.703Z,5.00
2019-03-13T04:34:10.998Z,5.37
2019-03-13T04:36:41.213Z,4.53
2019-03-13T04:39:11.481Z,7.93
2019-03-13T04:41:41.753Z,5.80
2019-03-13T04:44:11.967Z,7.00
2019-03-13T04:46:42.144Z,4.63
2019-03-13T04:49:12.420Z,6.23
2019-03-13T04:51:42.657Z,7.23
2019-03-13T04:54:19.865Z,5.33
2019-03-13T04:56:50.051Z,6.23
2019-03-13T04:59:20.292Z,4.80
2019-03-13T05:01:50.588Z,5.17
2019-03-13T05:04:20.959Z,5.23
2019-03-13T05:06:51.155Z,7.60
2019-03-13T05:09:32.831Z,5.90
2019-03-13T05:12:02.963Z,6.07
2019-03-13T05:14:33.327Z,5.97
2019-03-13T05:17:03.622Z,5.80
2019-03-13T05:19:33.804Z,7.00
2019-03-13T05:22:04.143Z,5.87
2019-03-13T05:24:34.451Z,6.93
2019-03-13T05:27:04.849Z,6.60
2019-03-13T05:29:35.010Z,10.43
2019-03-13T05:32:05.287Z,6.97
2019-03-13T05:34:35.486Z,7.73
2019-03-13T05:37:05.717Z,11.50
2019-03-13T05:39:35.935Z,7.87
2019-03-13T05:42:06.221Z,6.27
2019-03-13T05:44:36.480Z,12.50
2019-03-13T05:47:06.750Z,9.00
2019-03-13T05:49:37.004Z,8.30
2019-03-13T05:52:07.204Z,6.17
2019-03-13T05:54:37.520Z,7.03
2019-03-13T05:57:08.689Z,14.47
2019-03-13T05:59:38.943Z,16.87
2019-03-13T06:02:09.483Z,8.00
2019-03-13T06:04:39.772Z,7.60
2019-03-13T06:07:09.949Z,7.50
2019-03-13T06:09:40.338Z,7.00
2019-03-13T06:12:10.648Z,8.60
2019-03-13T06:14:40.925Z,7.57
2019-03-13T06:17:11.163Z,11.30
2019-03-13T06:19:41.387Z,5.30
2019-03-13T06:22:11.848Z,8.43
2019-03-13T06:24:42.363Z,16.20
2019-03-13T06:27:12.744Z,15.37
2019-03-13T06:29:42.963Z,17.80
2019-03-13T06:32:13.975Z,13.23
2019-03-13T06:34:44.252Z,13.20
2019-03-13T06:37:14.623Z,13.83
2019-03-13T06:39:45.197Z,21.10
2019-03-13T06:42:15.468Z,14.33
2019-03-13T06:44:45.619Z,12.43
2019-03-13T06:47:15.896Z,11.80
2019-03-13T06:49:46.120Z,11.40
2019-03-13T06:52:16.288Z,7.77
2019-03-13T06:54:46.603Z,8.13
2019-03-13T06:57:16.845Z,5.77
2019-03-13T07:00:05.695Z,9.53
2019-03-13T07:02:50.878Z,6.30
2019-03-13T07:05:29.598Z,8.90
2019-03-13T07:08:18.761Z,8.80
2019-03-13T07:11:07.099Z,7.33
2019-03-13T07:13:48.084Z,6.53
2019-03-13T07:16:52.915Z,6.87
2019-03-13T07:19:40.646Z,9.10
2019-03-13T07:22:21.926Z,6.93
2019-03-13T07:25:13.959Z,7.73
2019-03-13T07:27:54.712Z,9.43
2019-03-13T07:30:34.248Z,6.47
2019-03-13T07:33:11.172Z,7.67
2019-03-13T07:35:50.785Z,7.33
2019-03-13T07:38:39.235Z,7.23
2019-03-13T07:41:35.539Z,9.23
2019-03-13T07:44:15.923Z,8.73
2019-03-13T07:47:04.672Z,11.17
2019-03-13T07:50:03.164Z,9.97
2019-03-13T07:52:51.205Z,10.67
2019-03-13T07:55:46.103Z,6.40
2019-03-13T07:58:31.777Z,8.17
2019-03-13T08:01:19.809Z,9.77
2019-03-13T08:03:55.473Z,8.27
2019-03-13T08:06:51.089Z,8.83
2019-03-13T08:09:42.919Z,8.73
2019-03-13T08:12:39.238Z,9.20
2019-03-13T08:15:18.689Z,8.67
2019-03-13T08:18:02.528Z,9.60
2019-03-13T08:20:54.561Z,5.23
2019-03-13T08:23:42.600Z,5.57
2019-03-13T08:26:31.559Z,10.03
2019-03-13T08:29:09.668Z,7.77
2019-03-13T08:31:48.388Z,7.10
2019-03-13T08:34:31.350Z,6.93
2019-03-13T08:37:15.659Z,7.17
2019-03-13T08:40:10.869Z,9.23
2019-03-13T08:42:50.407Z,11.83
2019-03-13T08:45:32.421Z,7.63
2019-03-13T08:48:11.941Z,10.07
2019-03-13T08:51:10.528Z,5.27
2019-03-13T08:53:58.772Z,6.07
2019-03-13T08:56:46.811Z,6.17
2019-03-13T08:59:32.185Z,6.03
2019-03-13T09:02:25.346Z,5.63
2019-03-13T09:05:13.180Z,6.33
2019-03-13T09:07:54.040Z,9.57
2019-03-13T09:10:36.662Z,8.13
2019-03-13T09:13:29.187Z,5.80
2019-03-13T09:16:21.341Z,7.03
2019-03-13T09:19:13.680Z,7.70
2019-03-13T09:21:54.654Z,6.93
2019-03-13T09:24:34.805Z,8.60
2019-03-13T09:27:39.436Z,6.73
2019-03-13T09:30:28.293Z,9.60
2019-03-13T09:33:16.127Z,5.43
2019-03-13T09:36:08.164Z,7.40
2019-03-13T09:38:46.496Z,10.13
2019-03-13T09:41:29.082Z,13.53
2019-03-13T09:44:17.019Z,8.37
2019-03-13T09:46:59.924Z,5.40
2019-03-13T09:49:38.645Z,6.30
2019-03-13T09:52:26.492Z,11.27
2019-03-13T09:55:15.759Z,5.93
2019-03-13T09:58:23.254Z,3.97
2019-03-13T10:01:27.471Z,9.50
2019-03-13T10:04:20.426Z,7.27
2019-03-13T10:07:09.692Z,6.17
2019-03-13T10:09:57.836Z,9.90
2019-03-13T10:12:50.155Z,6.00
2019-03-13T10:15:31.343Z,9.20
2019-03-13T10:18:16.934Z,3.77
2019-03-13T10:21:06.202Z,6.63
2019-03-13T10:24:01.306Z,5.57
2019-03-13T10:27:02.350Z,7.87
2019-03-13T10:29:37.856Z,4.10
2019-03-13T10:32:42.423Z,7.93
2019-03-13T10:35:30.153Z,4.93
2019-03-13T10:38:21.878Z,5.93
2019-03-13T10:41:10.110Z,6.47
2019-03-13T10:43:56.206Z,5.43
2019-03-13T10:46:45.381Z,11.47
2019-03-13T10:49:41.408Z,8.73
2019-03-13T10:52:20.947Z,5.67
2019-03-13T10:55:06.971Z,6.70
2019-03-13T10:57:51.698Z,8.57
2019-03-13T11:00:37.799Z,5.73
2019-03-13T11:03:15.387Z,5.90
2019-03-13T11:06:14.795Z,9.50
2019-03-13T11:09:12.763Z,13.23
2019-03-13T11:11:49.112Z,8.30
2019-03-13T11:14:38.293Z,5.13
2019-03-13T11:17:18.343Z,7.97
2019-03-13T11:20:05.656Z,5.40
2019-03-13T11:22:58.007Z,8.03
2019-03-13T11:25:41.237Z,4.07
2019-03-13T11:28:19.012Z,6.13
2019-03-13T11:31:08.195Z,7.53
2019-03-13T11:33:57.362Z,8.37
2019-03-13T11:36:46.540Z,4.57
2019-03-13T11:39:33.131Z,10.83
2019-03-13T11:42:21.169Z,5.07
2019-03-13T11:45:16.378Z,5.53
2019-03-13T11:48:06.246Z,6.13
2019-03-13T11:50:55.837Z,5.90
2019-03-13T11:53:54.011Z,4.83
2019-03-13T11:56:42.255Z,5.90
2019-03-13T11:59:49.646Z,7.13
2019-03-13T12:02:32.154Z,5.73
2019-03-13T12:05:24.190Z,4.63
2019-03-13T12:08:10.895Z,5.73
2019-03-13T12:11:09.073Z,6.13
2019-03-13T12:14:16.669Z,7.87
2019-03-13T12:17:21.092Z,5.13
2019-03-13T12:19:59.914Z,5.90
2019-03-13T12:22:43.242Z,5.10
2019-03-13T12:25:32.614Z,6.67
2019-03-13T12:28:24.644Z,10.50
2019-03-13T12:31:16.678Z,4.83
2019-03-13T12:34:25.405Z,4.17
2019-03-13T12:37:23.783Z,5.93
2019-03-13T12:40:21.857Z,5.70
2019-03-13T12:43:11.022Z,5.20
2019-03-13T12:46:05.613Z,8.60
2019-03-13T12:48:54.779Z,7.03
2019-03-13T12:51:49.883Z,7.37
2019-03-13T12:54:37.820Z,6.00
2019-03-13T12:57:25.756Z,6.50
2019-03-13T13:00:24.037Z,5.10
2019-03-13T13:03:15.556Z,6.23
2019-03-13T13:06:11.175Z,7.42
2019-03-13T13:08:59.929Z,8.13
2019-03-13T13:12:01.082Z,5.77
2019-03-13T13:14:52.073Z,7.40
2019-03-13T13:17:46.163Z,6.87
2019-03-13T13:20:16.373Z,19.23
2019-03-13T13:22:46.644Z,4.97
2019-03-13T13:25:16.724Z,8.40
2019-03-13T13:27:46.972Z,6.27
2019-03-13T13:34:00.995Z,5.30
2019-03-13T13:36:31.234Z,7.25
2019-03-13T13:39:01.519Z,6.27
2019-03-13T13:41:31.805Z,6.53
2019-03-13T13:44:02.038Z,5.25
2019-03-13T13:46:39.959Z,7.65
2019-03-13T13:49:10.252Z,7.28
2019-03-13T13:51:43.005Z,7.10
2019-03-13T13:54:13.288Z,7.35
2019-03-13T13:56:47.032Z,8.05
2019-03-13T13:59:17.321Z,7.97
2019-03-13T14:01:47.680Z,7.60
2019-03-13T14:04:18.001Z,7.53
2019-03-13T14:06:48.325Z,8.45
2019-03-13T14:09:19.494Z,7.95
2019-03-13T14:11:49.876Z,9.77
2019-03-13T14:14:20.189Z,5.97
2019-03-13T14:16:50.400Z,6.83
2019-03-13T14:19:20.660Z,10.47
2019-03-13T14:21:50.905Z,6.80
2019-03-13T14:24:21.171Z,7.58
2019-03-13T14:26:51.644Z,5.60
2019-03-13T14:29:21.895Z,8.50
2019-03-13T14:31:52.121Z,7.17
2019-03-13T14:34:22.412Z,6.65
2019-03-13T14:36:52.731Z,8.70
2019-03-13T14:39:22.800Z,5.03
2019-03-13T14:41:53.122Z,7.30
2019-03-13T14:44:23.343Z,5.90
2019-03-13T14:46:53.563Z,10.10
2019-03-13T14:49:23.714Z,7.08
2019-03-13T14:51:54.010Z,4.85
2019-03-13T14:54:24.231Z,4.78
2019-03-13T14:56:54.599Z,8.18
2019-03-13T14:59:24.855Z,7.75
2019-03-13T15:01:55.090Z,6.45
2019-03-13T15:04:26.415Z,8.08
2019-03-13T15:06:56.871Z,6.85
2019-03-13T15:09:27.503Z,6.33
2019-03-13T15:11:58.816Z,6.20
2019-03-13T15:14:29.167Z,6.80
2019-03-13T15:17:01.462Z,7.10
2019-03-13T15:19:31.764Z,8.23
2019-03-13T15:22:02.046Z,5.97
2019-03-13T15:24:32.347Z,7.15
2019-03-13T15:27:02.636Z,6.55
2019-03-13T15:29:32.791Z,6.35
2019-03-13T15:32:03.120Z,7.03
2019-03-13T15:34:33.367Z,5.47
2019-03-13T15:37:03.621Z,7.40
2019-03-13T15:39:34.083Z,5.77
2019-03-13T15:42:04.467Z,8.23
2019-03-13T15:44:34.934Z,5.28
2019-03-13T15:47:05.246Z,9.98
2019-03-13T15:49:35.545Z,10.15
2019-03-13T15:52:05.867Z,8.78
2019-03-13T15:54:36.433Z,11.08
2019-03-13T15:57:06.685Z,5.50
2019-03-13T15:59:36.879Z,5.92
2019-03-13T16:02:07.327Z,6.58
2019-03-13T16:04:37.686Z,8.50
2019-03-13T16:07:07.884Z,6.80
2019-03-13T16:09:38.525Z,7.08
2019-03-13T16:12:09.920Z,7.33
2019-03-13T16:14:40.213Z,8.83
2019-03-13T16:17:10.467Z,5.20
2019-03-13T16:19:40.731Z,7.15
2019-03-13T16:22:12.479Z,7.60
2019-03-13T16:24:42.775Z,8.10
2019-03-13T16:27:13.045Z,7.07
2019-03-13T16:29:43.279Z,7.23
2019-03-13T16:32:16.228Z,8.63
2019-03-13T16:34:46.467Z,7.07
2019-03-13T16:37:16.807Z,6.47
2019-03-13T16:39:47.084Z,8.07
2019-03-13T16:42:17.336Z,9.63
2019-03-13T16:44:47.558Z,8.57
2019-03-13T16:47:17.667Z,8.70
2019-03-13T16:49:47.853Z,9.03
2019-03-13T16:52:19.319Z,25.33
2019-03-13T16:54:49.664Z,14.87
2019-03-13T16:57:20.014Z,21.10
2019-03-13T17:00:00.069Z,19.00
2019-03-13T17:02:22.439Z,11.70
2019-03-13T17:04:53.112Z,9.77
2019-03-13T17:07:23.526Z,11.23
2019-03-13T17:09:53.836Z,16.20
2019-03-13T17:12:24.187Z,13.83
2019-03-13T17:14:54.536Z,5.27
2019-03-13T17:17:24.765Z,5.67
2019-03-13T17:19:55.050Z,7.80
2019-03-13T17:22:25.291Z,7.20
2019-03-13T17:24:55.675Z,7.27
2019-03-13T17:27:25.924Z,8.10
2019-03-13T17:29:56.130Z,5.93
2019-03-13T17:32:26.450Z,10.80
2019-03-13T17:34:56.807Z,6.33
2019-03-13T17:37:27.072Z,8.20
2019-03-13T17:39:57.387Z,7.60
2019-03-13T17:42:27.680Z,7.47
2019-03-13T17:44:57.900Z,9.43
2019-03-13T17:47:28.264Z,22.30
2019-03-13T17:49:58.219Z,27.63
2019-03-13T17:52:28.194Z,31.80
2019-03-13T17:54:58.209Z,24.57
2019-03-13T17:57:28.363Z,10.83
2019-03-13T17:59:58.446Z,8.57
2019-03-13T18:02:28.486Z,8.77
2019-03-13T18:04:58.588Z,10.03
2019-03-13T18:07:28.968Z,6.97
2019-03-13T18:09:59.004Z,6.67
2019-03-13T18:12:29.037Z,10.90
2019-03-13T18:14:59.162Z,11.27
2019-03-13T18:17:30.685Z,8.87
2019-03-13T18:20:02.460Z,8.83
2019-03-13T18:22:32.817Z,8.00
2019-03-13T18:25:05.059Z,5.73
2019-03-13T18:27:40.868Z,8.43
2019-03-13T18:30:16.578Z,6.73
2019-03-13T18:32:46.937Z,7.57
2019-03-13T18:35:17.630Z,8.83
2019-03-13T18:37:48.343Z,7.73
2019-03-13T18:40:18.708Z,7.27
2019-03-13T18:42:49.372Z,10.37
2019-03-13T18:45:22.088Z,11.97
2019-03-13T18:47:52.346Z,7.87
2019-03-13T18:50:22.696Z,7.30
2019-03-13T18:52:53.319Z,5.77
2019-03-13T18:55:24.156Z,6.77
2019-03-13T18:57:54.491Z,8.80
2019-03-13T19:00:29.674Z,5.80
2019-03-13T19:02:59.938Z,10.97
2019-03-13T19:05:31.061Z,10.20
2019-03-13T19:08:01.558Z,11.10
2019-03-13T19:10:32.080Z,17.10
2019-03-13T19:13:02.607Z,12.00
2019-03-13T19:15:33.097Z,15.23
2019-03-13T19:18:03.595Z,11.03
2019-03-13T19:20:35.419Z,8.57
2019-03-13T19:23:07.074Z,8.77
2019-03-13T19:25:37.707Z,8.00
2019-03-13T19:28:09.243Z,8.43
2019-03-13T19:30:42.146Z,12.13
2019-03-13T19:33:13.878Z,10.93
2019-03-13T19:35:45.655Z,15.43
2019-03-13T19:38:19.030Z,23.17
2019-03-13T19:40:50.955Z,10.07
2019-03-13T19:43:25.347Z,16.83
2019-03-13T19:45:57.844Z,28.90
2019-03-13T19:48:29.638Z,57.07
2019-03-13T19:51:01.254Z,34.50
2019-03-13T19:53:33.078Z,96.60
2019-03-13T19:56:05.370Z,46.93
2019-03-13T19:58:37.278Z,27.63
2019-03-13T20:01:13.151Z,43.80
2019-03-13T20:03:55.100Z,23.37
2019-03-13T20:06:26.842Z,15.97
2019-03-13T20:09:00.707Z,23.40
2019-03-13T20:11:33.505Z,14.87
2019-03-13T20:14:08.078Z,23.17
2019-03-13T20:16:41.152Z,13.30
2019-03-13T20:19:12.647Z,10.97
2019-03-13T20:21:45.180Z,10.63
2019-03-13T20:24:16.696Z,8.70
2019-03-13T20:26:48.575Z,9.27
2019-03-13T20:29:19.973Z,14.13
2019-03-13T20:31:51.258Z,10.70
2019-03-13T20:34:22.844Z,16.87
2019-03-13T20:36:54.479Z,13.67
2019-03-13T20:39:26.332Z,11.77
2019-03-13T20:41:57.734Z,10.00
2019-03-13T20:44:29.228Z,7.00
2019-03-13T20:47:00.330Z,6.43
2019-03-13T20:49:31.915Z,7.67
2019-03-13T20:52:03.350Z,11.47
2019-03-13T20:54:34.916Z,24.10
2019-03-13T20:57:06.384Z,20.53
2019-03-13T20:59:38.175Z,11.90
2019-03-13T21:02:10.020Z,7.83
2019-03-13T21:04:41.472Z,13.10
2019-03-13T21:07:13.086Z,8.83
2019-03-13T21:09:44.971Z,10.27
2019-03-13T21:12:16.291Z,16.47
2019-03-13T21:14:48.073Z,16.13
2019-03-13T21:17:19.580Z,10.80
2019-03-13T21:19:51.232Z,12.43
2019-03-13T21:22:23.787Z,14.27
2019-03-13T21:24:55.447Z,14.30
2019-03-13T21:27:27.190Z,10.47
2019-03-13T21:29:58.738Z,13.47
2019-03-13T21:32:30.435Z,11.00
2019-03-13T21:35:01.858Z,9.33
2019-03-13T21:37:33.055Z,9.30
2019-03-13T21:40:03.527Z,7.80
2019-03-13T21:42:34.124Z,11.63
2019-03-13T21:45:04.721Z,11.70
2019-03-13T21:47:34.991Z,15.33
2019-03-13T21:50:06.064Z,11.37
2019-03-13T21:52:36.300Z,14.27
2019-03-13T21:55:07.202Z,11.97
2019-03-13T21:57:37.506Z,11.90
2019-03-13T22:00:10.470Z,10.90
2019-03-13T22:02:40.839Z,10.87
2019-03-13T22:05:11.306Z,14.97
2019-03-13T22:07:41.753Z,16.73
2019-03-13T22:10:12.442Z,13.17
2019-03-13T22:12:42.735Z,12.43
2019-03-13T22:15:14.034Z,10.73
2019-03-13T22:17:44.199Z,12.87
2019-03-13T22:20:14.707Z,15.27
2019-03-13T22:22:46.846Z,12.67
2019-03-13T22:25:17.310Z,13.53
2019-03-13T22:27:47.563Z,12.17
2019-03-13T22:30:19.635Z,14.73
2019-03-13T22:32:49.814Z,17.67
2019-03-13T22:35:20.157Z,16.27
2019-03-13T22:37:50.465Z,15.40
2019-03-13T22:40:21.019Z,12.40
2019-03-13T22:42:51.339Z,13.50
2019-03-13T22:45:21.624Z,17.07
2019-03-13T22:47:51.986Z,14.83
2019-03-13T22:50:22.316Z,17.33
2019-03-13T22:52:52.830Z,14.90
2019-03-13T22:55:23.021Z,11.33
2019-03-13T22:57:53.300Z,12.83
2019-03-13T23:00:47.609Z,16.20
2019-03-13T23:03:18.267Z,13.03
2019-03-13T23:05:48.508Z,20.70
2019-03-13T23:08:18.970Z,15.93
2019-03-13T23:10:49.242Z,15.57
2019-03-13T23:13:19.597Z,15.70
2019-03-13T23:15:49.978Z,19.20
2019-03-13T23:18:20.322Z,19.00
2019-03-13T23:20:50.532Z,18.30
2019-03-13T23:23:20.951Z,15.00
2019-03-13T23:25:52.195Z,14.43
2019-03-13T23:28:22.430Z,15.80
2019-03-13T23:30:52.739Z,16.63
2019-03-13T23:33:23.187Z,18.07
2019-03-13T23:35:53.327Z,17.73
2019-03-13T23:38:23.580Z,28.40
2019-03-13T23:40:53.872Z,27.87
2019-03-13T23:43:24.098Z,25.40
2019-03-13T23:45:54.337Z,31.20
2019-03-13T23:48:24.611Z,30.20
2019-03-13T23:50:54.864Z,31.50
2019-03-13T23:53:25.237Z,21.47
2019-03-13T23:55:55.646Z,25.93
2019-03-13T23:58:25.952Z,29.30
